Impacts TAF Board
For situational awareness. Not to be used for flight planning purposes.
IDs:

KHDN - Hayden/Yampa Valley, CO, US

Issued at 1724 UTC 17 Nov 2019
Updated at 2028 UTC 17 Nov 2019
Potential Impact None Slight Moderate High
Time1956Z 17/21Z 17/22Z 17/23Z 18/00Z 18/01Z 18/02Z 18/03Z 18/04Z 18/05Z 18/06Z 18/07Z 18/08Z 18/09Z>>
Type OBS PRVL PRVL PRVL PRVL PRVL PRVL PRVL PRVL PRVL PRVL PRVL PRVL PRVL
VIS 10 >6 >6 >6 >6 >6 >6 >6 >6 >6 >6 >6 >6 >6
CIG -- -- -- -- -- -- -- -- -- -- -- -- -- --
Cover CLR SCT SCT SCT SCT SCT SCT SCT SCT SCT SCT SCT SCT SCT
FltCat VFR VFR VFR VFR VFR VFR VFR VFR VFR VFR VFR VFR VFR VFR
WX -- -- -- -- -- -- -- -- -- -- -- -- -- --
WDir 280 280 280 280 280 280 130 130 130 130 130 130 130 130
WSpd 7 9 9 9 9 9 6 6 6 6 6 6 6 6
WGst -- -- -- -- -- -- -- -- -- -- -- -- -- --
Raw TAF
KHDN 171724Z 1718/1818 10009KT P6SM FEW150 SCT250
  FM172000 28009KT P6SM FEW150 SCT250
  FM180200 13006KT P6SM FEW120 SCT250


Raw METAR
KHDN 171956Z AUTO 28007KT 10SM CLR 08/M07 A3028 RMK AO2 SLP250 T00831072
KHDN 171856Z AUTO 00000KT 10SM CLR 07/M07 A3031 RMK AO2 SLP264 T00671072
KHDN 171756Z AUTO 11005KT 10SM CLR 06/M06 A3034 RMK AO2 SLP275 T00561056 10056 21061 58003

METAR Board
Radar Display
Forecast Discussion
For situational awareness. Not to be used for flight planning purposes.